Leaf River, Illinois
Current Conditions -  °F | °C
As of 12:55 AM on Friday 28 Nov 2014 (Local Time) from KFEP Reporting Station
Overcast Overcast  
Wind Chill: 14°   Ceiling: 11000
Heat Index: 14°   Visibility: 10mi
Dew Point:   Wind: 3mph
Humidity: 70%   Direction: 210°SSW
Pressure: 30.37"   Gusts: NA
Location:  42.13°N, 89.4°W
Report Text: KFEP 280655Z AUTO 21003KT 10SM SCT090 OVC110 M10/M15 A3037 RMK AO2 T11001146
Loading
Personal Weather Stations






























Interactive Weather Map New forecast layout! Learn more

10-Day Weather Forecast

Advertisements
Track Severe Weather on mobile